Menu Close Menu
Station Historical Data
Daily Summary for May 30, 2017 Units:  Metric    English   Both
« Previous Day
Next Day »
Daily Weekly Monthly Yearly Custom
  High: Low: Average:
Temperature: 21.6 °C 18.1 °C 19.2 °C
Dew Point: 19.9 °C 17.2 °C 18.1 °C
Humidity: 95% 88% 93%
Wind Speed: 0km/h 0km/h 0km/h
Wind Gust: 4.8km/h - -
Wind- -
Pressure: 1021.6 hPa 1017.8 hPa -
Precipitation: 7.62 mm    
Historical Graphs
 
 
Tabular Data for May 30, 2017
Time Temperature Dew Point Pressure Wind Wind Speed Wind Gust Humidity Rainfall Rate (Hourly) solar Conditions
00:00 18.9 °C 17.6 °C 1018.5 hPa Calm     92% 0.25 mm WeatherDisplay:10.37 W/m2 RA
00:10 18.9 °C 17.7 °C 1018.5 hPa Calm     93% 0 mm WeatherDisplay:10.37 W/m2 SCT
00:20 18.8 °C 17.7 °C 1018.5 hPa Calm     93% 0 mm WeatherDisplay:10.37 W/m2 SCT
00:40 18.8 °C 17.7 °C 1018.2 hPa Calm     93% 0 mm WeatherDisplay:10.37 W/m2 SCT
00:50 18.8 °C 17.7 °C 1018.2 hPa Calm     93% 0 mm WeatherDisplay:10.37 W/m2 SCT
01:00 18.8 °C 17.7 °C 1018.5 hPa Calm     93% 0 mm WeatherDisplay:10.37 W/m2 SCT
01:10 18.8 °C 17.6 °C 1018.5 hPa Calm     93% 0 mm WeatherDisplay:10.37 W/m2 SCT
01:20 18.8 °C 17.7 °C 1018.5 hPa Calm     93% 0 mm WeatherDisplay:10.37 W/m2 SCT
01:30 18.8 °C 17.7 °C 1018.5 hPa Calm     93% 0 mm WeatherDisplay:10.37 W/m2 SCT
01:40 18.8 °C 17.7 °C 1018.5 hPa Calm     93% 0 mm WeatherDisplay:10.37 W/m2 SCT
01:50 18.8 °C 17.6 °C 1018.5 hPa Calm     93% 0 mm WeatherDisplay:10.37 W/m2 SCT
02:00 18.8 °C 17.6 °C 1018.2 hPa Calm     93% 0 mm WeatherDisplay:10.37 W/m2 SCT
02:10 18.8 °C 17.6 °C 1018.2 hPa Calm     93% 0 mm WeatherDisplay:10.37 W/m2 SCT
02:20 18.7 °C 17.6 °C 1018.2 hPa Calm     93% 0 mm WeatherDisplay:10.37 W/m2 SCT
02:30 18.7 °C 17.5 °C 1018.2 hPa Calm     93% 0 mm WeatherDisplay:10.37 W/m2 SCT
02:40 18.7 °C 17.5 °C 1018.5 hPa Calm     93% 0 mm WeatherDisplay:10.37 W/m2 SCT
02:50 18.6 °C 17.4 °C 1018.5 hPa Calm     93% 0 mm WeatherDisplay:10.37 W/m2 SCT
03:00 18.1 °C 17.2 °C 1018.2 hPa Calm     95% 0 mm WeatherDisplay:10.37 W/m2 SCT
03:10 18.1 °C 17.2 °C 1018.2 hPa Calm     95% 0 mm WeatherDisplay:10.37 W/m2 SCT
03:20 18.1 °C 17.2 °C 1018.2 hPa Calm     95% 0 mm WeatherDisplay:10.37 W/m2 SCT
03:30 18.1 °C 17.2 °C 1018.2 hPa Calm     95% 0 mm WeatherDisplay:10.37 W/m2 SCT
03:40 18.1 °C 17.2 °C 1018.2 hPa Calm     95% 0 mm WeatherDisplay:10.37 W/m2 SCT
03:50 18.1 °C 17.2 °C 1018.2 hPa Calm     95% 0 mm WeatherDisplay:10.37 W/m2 SCT
04:00 18.1 °C 17.2 °C 1018.2 hPa Calm     95% 0 mm WeatherDisplay:10.37 W/m2 SCT
04:10 18.1 °C 17.2 °C 1018.2 hPa Calm     95% 0 mm WeatherDisplay:10.37 W/m2 SCT
04:30 18.1 °C 17.2 °C 1018.2 hPa Calm     95% 0 mm WeatherDisplay:10.37 W/m2 SCT
04:40 18.1 °C 17.2 °C 1018.2 hPa Calm     95% 0 mm WeatherDisplay:10.37 W/m2 SCT
04:50 18.1 °C 17.2 °C 1018.2 hPa Calm     95% 0 mm WeatherDisplay:10.37 W/m2 SCT
05:00 18.1 °C 17.2 °C 1018.2 hPa Calm     95% 0 mm WeatherDisplay:10.37 W/m2 SCT
05:10 18.1 °C 17.2 °C 1018.2 hPa Calm     95% 0 mm WeatherDisplay:10.37 W/m2 SCT
05:20 18.1 °C 17.2 °C 1018.2 hPa Calm     95% 0 mm WeatherDisplay:10.37 W/m2 SCT
05:30 18.1 °C 17.2 °C 1018.5 hPa Calm     95% 0 mm WeatherDisplay:10.37 W/m2 SCT
05:40 18.1 °C 17.2 °C 1018.5 hPa Calm     95% 0 mm WeatherDisplay:10.37 W/m2 SCT
05:50 18.1 °C 17.2 °C 1018.8 hPa Calm     95% 0 mm WeatherDisplay:10.37 W/m2 SCT
06:00 18.1 °C 17.2 °C 1018.8 hPa Calm     95% 0 mm WeatherDisplay:10.37 W/m2 SCT
06:10 18.1 °C 17.2 °C 1018.8 hPa Calm     95% 0 mm WeatherDisplay:10.37 W/m2 SCT
06:20 18.1 °C 17.2 °C 1018.8 hPa Calm     95% 0 mm WeatherDisplay:10.37 W/m2 SCT
06:30 18.1 °C 17.2 °C 1018.8 hPa Calm     95% 0 mm WeatherDisplay:10.37 W/m2 SCT
06:40 18.1 °C 17.2 °C 1018.8 hPa Calm     95% 0 mm WeatherDisplay:10.37 W/m2 SCT
06:50 18.1 °C 17.2 °C 1019.2 hPa Calm     95% 0 mm WeatherDisplay:10.37 W/m2 SCT
07:00 18.1 °C 17.2 °C 1019.2 hPa Calm     95% 0 mm WeatherDisplay:10.37 W/m2 SCT
07:10 18.1 °C 17.2 °C 1019.5 hPa Calm     95% 0 mm WeatherDisplay:10.37 W/m2 SCT
07:20 18.1 °C 17.2 °C 1019.5 hPa Calm     95% 0 mm WeatherDisplay:10.37 W/m2 SCT
07:30 18.1 °C 17.2 °C 1019.5 hPa Calm     95% 0 mm WeatherDisplay:10.37 W/m2 SCT
07:40 18.1 °C 17.2 °C 1019.5 hPa Calm     95% 0 mm WeatherDisplay:10.37 W/m2 SCT
07:50 18.1 °C 17.2 °C 1019.9 hPa Calm     95% 0 mm WeatherDisplay:10.37 W/m2 SCT
08:00 18.1 °C 17.2 °C 1019.9 hPa Calm     95% 0 mm WeatherDisplay:10.37 W/m2 SCT
08:10 18.1 °C 17.2 °C 1019.9 hPa Calm     95% 0 mm WeatherDisplay:10.37 W/m2 SCT
08:20 18.1 °C 17.2 °C 1019.9 hPa Calm     95% 0 mm WeatherDisplay:10.37 W/m2 SCT
08:30 18.1 °C 17.2 °C 1019.9 hPa Calm     95% 0 mm WeatherDisplay:10.37 W/m2 SCT
08:40 18.1 °C 17.2 °C 1020.2 hPa Calm     95% 0 mm WeatherDisplay:10.37 W/m2 SCT
08:50 18.1 °C 17.2 °C 1020.2 hPa Calm     95% 0 mm WeatherDisplay:10.37 W/m2 SCT
09:00 18.1 °C 17.2 °C 1020.5 hPa Calm     95% 0 mm WeatherDisplay:10.37 W/m2 SCT
09:10 18.1 °C 17.2 °C 1020.5 hPa Calm     95% 0 mm WeatherDisplay:10.37 W/m2 SCT
09:20 18.1 °C 17.2 °C 1020.5 hPa Calm     95% 0 mm WeatherDisplay:10.37 W/m2 SCT
09:30 18.1 °C 17.2 °C 1020.5 hPa Calm     95% 0 mm WeatherDisplay:10.37 W/m2 SCT
09:40 18.1 °C 17.2 °C 1020.5 hPa Calm     95% 0 mm WeatherDisplay:10.37 W/m2 SCT
09:50 18.1 °C 17.2 °C 1020.5 hPa Calm     95% 0 mm WeatherDisplay:10.37 W/m2 SCT
10:00 18.1 °C 17.2 °C 1020.5 hPa Calm     95% 0 mm WeatherDisplay:10.37 W/m2 SCT
10:10 18.1 °C 17.2 °C 1020.5 hPa Calm     95% 0 mm WeatherDisplay:10.37 W/m2 SCT
10:20 18.1 °C 17.2 °C 1020.5 hPa Calm     95% 0 mm WeatherDisplay:10.37 W/m2 SCT
10:30 18.1 °C 17.2 °C 1020.5 hPa Calm     95% 0 mm WeatherDisplay:10.37 W/m2 SCT
10:40 18.1 °C 17.2 °C 1020.2 hPa Calm     95% 0 mm WeatherDisplay:10.37 W/m2 SCT
10:50 18.1 °C 17.2 °C 1020.5 hPa Calm     95% 0 mm WeatherDisplay:10.37 W/m2 SCT
11:00 18.1 °C 17.2 °C 1020.5 hPa Calm     95% 0 mm WeatherDisplay:10.37 W/m2 SCT
11:10 20.6 °C 19.6 °C 1020.5 hPa Calm     94% 0 mm WeatherDisplay:10.37 W/m2 SCT
11:20 20.7 °C 19.7 °C 1020.5 hPa Calm   1.6 km/h 94% 0 mm WeatherDisplay:10.37 W/m2 SCT
11:30 20.8 °C 19.8 °C 1020.5 hPa Calm   1.6 km/h 94% 0 mm WeatherDisplay:10.37 W/m2 SCT
11:40 20.9 °C 19.9 °C 1020.5 hPa Calm   1.6 km/h 94% 0 mm WeatherDisplay:10.37 W/m2 SCT
11:50 20.8 °C 19.8 °C 1020.5 hPa Calm   1.6 km/h 94% 0 mm WeatherDisplay:10.37 W/m2 SCT
12:00 20.5 °C 19.3 °C 1020.5 hPa Calm   1.6 km/h 93% 0 mm WeatherDisplay:10.37 W/m2 SCT
12:10 20.4 °C 19.4 °C 1020.9 hPa Calm     94% 0.76 mm WeatherDisplay:10.37 W/m2 RA
12:20 20.2 °C 19.1 °C 1021.2 hPa Calm   1.6 km/h 93% 1.52 mm WeatherDisplay:10.37 W/m2 RA
12:30 20.1 °C 18.9 °C 1021.6 hPa Calm   1.6 km/h 93% 1.52 mm WeatherDisplay:10.37 W/m2 RA
12:40 19.8 °C 18.7 °C 1021.6 hPa Calm   1.6 km/h 93% 0.76 mm WeatherDisplay:10.37 W/m2 SCT
12:50 19.3 °C 18.1 °C 1021.6 hPa Calm   1.6 km/h 93% 0.76 mm WeatherDisplay:10.37 W/m2 RA
13:00 19.3 °C 18.1 °C 1021.6 hPa Calm     93% 0.51 mm WeatherDisplay:10.37 W/m2 RA
13:10 19.3 °C 18.1 °C 1021.2 hPa Calm     93% 0.25 mm WeatherDisplay:10.37 W/m2 SCT
13:20 19.1 °C 17.9 °C 1021.2 hPa Calm   1.6 km/h 93% 0.51 mm WeatherDisplay:10.37 W/m2 RA
13:30 19.1 °C 17.9 °C 1021.2 hPa Calm   1.6 km/h 93% 0.25 mm WeatherDisplay:10.37 W/m2 SCT
13:40 19 °C 17.8 °C 1021.2 hPa Calm   1.6 km/h 93% 0.25 mm WeatherDisplay:10.37 W/m2 SCT
13:50 18.8 °C 17.6 °C 1020.9 hPa Calm   3.2 km/h 93% 0.25 mm WeatherDisplay:10.37 W/m2 SCT
14:00 18.7 °C 17.6 °C 1020.9 hPa Calm   4.8 km/h 93% 0.25 mm WeatherDisplay:10.37 W/m2 SCT
14:10 19.1 °C 17.9 °C 1020.9 hPa Calm   1.6 km/h 93% 0 mm WeatherDisplay:10.37 W/m2 SCT
14:20 19.2 °C 18.1 °C 1020.5 hPa Calm     93% 0 mm WeatherDisplay:10.37 W/m2 SCT
14:30 19.7 °C 18.6 °C 1020.5 hPa Calm   1.6 km/h 93% 0 mm WeatherDisplay:10.37 W/m2 SCT
14:40 20.2 °C 19.1 °C 1020.2 hPa Calm   1.6 km/h 93% 0 mm WeatherDisplay:10.37 W/m2 SCT
14:50 20.4 °C 19.1 °C 1019.9 hPa Calm   1.6 km/h 92% 0 mm WeatherDisplay:10.37 W/m2 SCT
15:00 21 °C 19.7 °C 1019.9 hPa Calm   1.6 km/h 92% 0 mm WeatherDisplay:10.37 W/m2 SCT
15:10 21.3 °C 19.6 °C 1019.5 hPa Calm   1.6 km/h 90% 0 mm WeatherDisplay:10.37 W/m2 SCT
15:20 21.5 °C 19.6 °C 1019.5 hPa Calm   1.6 km/h 89% 0 mm WeatherDisplay:10.37 W/m2 SCT
15:30 21.6 °C 19.5 °C 1019.5 hPa Calm     88% 0 mm WeatherDisplay:10.37 W/m2 SCT
15:40 21.6 °C 19.7 °C 1019.5 hPa Calm     89% 0 mm WeatherDisplay:10.37 W/m2 SCT
15:50 21.6 °C 19.6 °C 1019.5 hPa Calm   1.6 km/h 88% 0 mm WeatherDisplay:10.37 W/m2 SCT
16:00 21.4 °C 19.4 °C 1019.5 hPa Calm     88% 0 mm WeatherDisplay:10.37 W/m2 SCT
16:10 21.3 °C 19.4 °C 1019.2 hPa Calm   1.6 km/h 89% 0 mm WeatherDisplay:10.37 W/m2 SCT
16:20 21.2 °C 19.5 °C 1019.5 hPa Calm     90% 0 mm WeatherDisplay:10.37 W/m2 SCT
16:30 21.1 °C 19.4 °C 1019.2 hPa Calm     90% 0 mm WeatherDisplay:10.37 W/m2 SCT
16:40 20.9 °C 19.2 °C 1019.5 hPa Calm     90% 0 mm WeatherDisplay:10.37 W/m2 SCT
16:50 20.9 °C 19.2 °C 1019.9 hPa Calm     90% 0 mm WeatherDisplay:10.37 W/m2 SCT
17:00 21.1 °C 19.6 °C 1019.9 hPa Calm   1.6 km/h 91% 0 mm WeatherDisplay:10.37 W/m2 SCT
17:10 21.1 °C 19.5 °C 1019.5 hPa Calm     91% 0 mm WeatherDisplay:10.37 W/m2 SCT
17:20 20.9 °C 19.4 °C 1019.5 hPa Calm     91% 0 mm WeatherDisplay:10.37 W/m2 SCT
17:30 20.9 °C 19.4 °C 1019.5 hPa Calm     91% 0 mm WeatherDisplay:10.37 W/m2 SCT
17:40 20.9 °C 19.4 °C 1019.2 hPa Calm     91% 0 mm WeatherDisplay:10.37 W/m2 SCT
17:50 20.9 °C 19.6 °C 1019.2 hPa Calm   1.6 km/h 92% 0 mm WeatherDisplay:10.37 W/m2 SCT
18:00 21 °C 19.7 °C 1019.5 hPa Calm     92% 0 mm WeatherDisplay:10.37 W/m2 SCT
18:10 21.1 °C 19.7 °C 1019.2 hPa Calm     92% 0 mm WeatherDisplay:10.37 W/m2 SCT
18:20 21.1 °C 19.7 °C 1018.8 hPa Calm     92% 0 mm WeatherDisplay:10.37 W/m2 SCT
18:40 21.1 °C 19.7 °C 1018.8 hPa Calm     92% 0 mm WeatherDisplay:10.37 W/m2 SCT
18:50 21 °C 19.7 °C 1018.8 hPa Calm     92% 0 mm WeatherDisplay:10.37 W/m2 SCT
19:00 20.9 °C 19.3 °C 1018.5 hPa Calm     91% 0 mm WeatherDisplay:10.37 W/m2 SCT
19:10 20.4 °C 18.6 °C 1018.2 hPa Calm   1.6 km/h 89% 0 mm WeatherDisplay:10.37 W/m2 SCT
19:20 20.3 °C 18.4 °C 1017.8 hPa Calm   1.6 km/h 89% 0 mm WeatherDisplay:10.37 W/m2 SCT
19:30 20.2 °C 18.6 °C 1017.8 hPa Calm     90% 0 mm WeatherDisplay:10.37 W/m2 SCT
19:40 20.1 °C 18.6 °C 1018.2 hPa Calm     91% 0 mm WeatherDisplay:10.37 W/m2 SCT
19:50 20 °C 18.5 °C 1018.2 hPa Calm     91% 0 mm WeatherDisplay:10.37 W/m2 SCT
20:00 19.9 °C 18.4 °C 1018.5 hPa Calm     91% 0 mm WeatherDisplay:10.37 W/m2 SCT
20:10 19.8 °C 18.3 °C 1018.8 hPa Calm     91% 0 mm WeatherDisplay:10.37 W/m2 SCT
20:20 19.7 °C 18.2 °C 1018.8 hPa Calm   1.6 km/h 91% 0 mm WeatherDisplay:10.37 W/m2 SCT
20:30 19.6 °C 18.1 °C 1018.8 hPa Calm     91% 0 mm WeatherDisplay:10.37 W/m2 SCT
20:40 19.5 °C 18 °C 1018.8 hPa Calm     91% 0 mm WeatherDisplay:10.37 W/m2 SCT
20:50 19.3 °C 18 °C 1018.8 hPa Calm     92% 0 mm WeatherDisplay:10.37 W/m2 SCT
21:00 19.2 °C 17.9 °C 1018.8 hPa Calm     92% 0 mm WeatherDisplay:10.37 W/m2 SCT
21:10 19.2 °C 17.8 °C 1019.2 hPa Calm     92% 0 mm WeatherDisplay:10.37 W/m2 SCT
21:20 19.1 °C 17.7 °C 1019.2 hPa Calm     92% 0 mm WeatherDisplay:10.37 W/m2 SCT
21:30 18.9 °C 17.6 °C 1019.2 hPa Calm     92% 0 mm WeatherDisplay:10.37 W/m2 SCT
21:40 18.9 °C 17.6 °C 1019.2 hPa Calm     92% 0 mm WeatherDisplay:10.37 W/m2 SCT
21:50 19 °C 17.8 °C 1019.5 hPa Calm     93% 0 mm WeatherDisplay:10.37 W/m2 SCT
22:00 18.9 °C 17.8 °C 1019.5 hPa Calm     93% 0 mm WeatherDisplay:10.37 W/m2 SCT
22:10 18.8 °C 17.7 °C 1019.5 hPa Calm     93% 0 mm WeatherDisplay:10.37 W/m2 SCT
22:20 18.8 °C 17.6 °C 1019.5 hPa Calm     93% 0 mm WeatherDisplay:10.37 W/m2 SCT
22:30 18.7 °C 17.6 °C 1019.9 hPa Calm     93% 0 mm WeatherDisplay:10.37 W/m2 SCT
22:40 18.7 °C 17.6 °C 1019.9 hPa Calm     93% 0 mm WeatherDisplay:10.37 W/m2 SCT
22:50 18.8 °C 17.6 °C 1019.9 hPa Calm     93% 0 mm WeatherDisplay:10.37 W/m2 SCT
23:00 18.7 °C 17.6 °C 1019.9 hPa Calm     93% 0 mm WeatherDisplay:10.37 W/m2 SCT
23:10 18.7 °C 17.6 °C 1019.9 hPa Calm     93% 0 mm WeatherDisplay:10.37 W/m2 SCT
23:20 18.8 °C 17.6 °C 1019.9 hPa Calm     93% 0 mm WeatherDisplay:10.37 W/m2 SCT
23:30 18.8 °C 17.6 °C 1019.9 hPa Calm     93% 0 mm WeatherDisplay:10.37 W/m2 SCT
23:40 18.7 °C 17.6 °C 1019.9 hPa Calm     93% 0 mm WeatherDisplay:10.37 W/m2 SCT
23:50 18.7 °C 17.6 °C 1019.9 hPa Calm     93% 0 mm WeatherDisplay:10.37 W/m2 SCT
Piedmont Bend
Compliments of Weather Underground - 4 mb